createdAt,value
2023-04-23T00:01:41.613Z,100.00
2023-04-23T00:11:43.945Z,100.00
2023-04-23T00:21:46.667Z,100.00
2023-04-23T00:31:48.608Z,100.00
2023-04-23T00:41:50.593Z,100.00
2023-04-23T00:51:52.266Z,100.00
2023-04-23T01:01:55.849Z,100.00
2023-04-23T01:12:00.075Z,100.00
2023-04-23T01:22:02.507Z,100.00
2023-04-23T01:32:05.249Z,100.00
2023-04-23T01:42:09.564Z,100.00
2023-04-23T01:52:12.553Z,100.00
2023-04-23T02:02:15.326Z,100.00
2023-04-23T02:12:17.108Z,100.00
2023-04-23T02:22:19.349Z,100.00
2023-04-23T02:32:21.330Z,100.00
2023-04-23T02:42:23.028Z,100.00
2023-04-23T02:52:25.514Z,100.00
2023-04-23T03:02:28.842Z,100.00
2023-04-23T03:12:30.596Z,100.00
2023-04-23T03:22:32.302Z,100.00
2023-04-23T03:32:36.148Z,100.00
2023-04-23T03:42:38.009Z,100.00
2023-04-23T03:52:39.717Z,100.00
2023-04-23T04:02:41.712Z,100.00
2023-04-23T04:12:47.876Z,100.00
2023-04-23T04:22:49.741Z,100.00
2023-04-23T04:32:58.271Z,100.00
2023-04-23T04:43:00.860Z,100.00
2023-04-23T04:53:02.449Z,100.00
2023-04-23T05:03:07.878Z,100.00
2023-04-23T05:13:10.289Z,100.00
2023-04-23T05:23:12.397Z,100.00
2023-04-23T05:33:14.382Z,100.00
2023-04-23T05:43:17.329Z,100.00
2023-04-23T05:53:19.081Z,97.61
2023-04-23T06:03:21.214Z,86.13
2023-04-23T06:13:23.159Z,79.96
2023-04-23T06:23:26.789Z,73.69
2023-04-23T06:33:28.569Z,68.06
2023-04-23T06:43:31.378Z,63.41
2023-04-23T06:53:36.606Z,57.95
2023-04-23T07:03:39.517Z,53.20
2023-04-23T07:13:44.703Z,52.63
2023-04-23T07:23:49.767Z,45.20
2023-04-23T07:33:52.704Z,42.47
2023-04-23T07:43:54.589Z,41.22
2023-04-23T07:53:57.119Z,39.23
2023-04-23T08:04:03.595Z,35.72
2023-04-23T08:14:08.811Z,36.29
2023-04-23T08:24:10.729Z,36.66
2023-04-23T08:34:15.124Z,33.52
2023-04-23T08:44:25.811Z,32.91
2023-04-23T08:54:29.059Z,33.01
2023-04-23T09:04:31.773Z,32.09
2023-04-23T09:14:37.751Z,26.61
2023-04-23T09:24:45.423Z,25.50
2023-04-23T09:34:57.041Z,24.14
2023-04-23T09:45:09.263Z,20.12
2023-04-23T09:55:11.096Z,19.99
2023-04-23T10:05:27.283Z,18.89
2023-04-23T10:15:33.784Z,16.10
2023-04-23T10:25:39.237Z,16.00
2023-04-23T10:35:42.461Z,16.08
2023-04-23T10:45:44.244Z,13.98
2023-04-23T10:55:47.351Z,15.44
2023-04-23T11:05:51.652Z,19.38
2023-04-23T11:16:26.829Z,19.93
2023-04-23T11:26:31.472Z,15.45
2023-04-23T11:36:34.831Z,12.41
2023-04-23T11:46:36.820Z,14.01
2023-04-23T11:56:38.602Z,21.47
2023-04-23T12:06:58.301Z,23.34
2023-04-23T12:17:09.977Z,22.85
2023-04-23T12:27:16.065Z,18.10
2023-04-23T12:37:20.394Z,18.43
2023-04-23T12:47:22.194Z,10.89
2023-04-23T12:57:25.337Z,9.48
2023-04-23T13:07:28.482Z,17.49
2023-04-23T13:17:32.493Z,15.33
2023-04-23T13:27:34.323Z,11.90
2023-04-23T13:37:36.809Z,11.95
2023-04-23T13:47:42.168Z,10.51
2023-04-23T13:57:48.849Z,13.56
2023-04-23T14:07:55.443Z,12.08
2023-04-23T14:17:57.253Z,13.57
2023-04-23T14:28:03.685Z,15.33
2023-04-23T14:38:06.384Z,17.10
2023-04-23T14:48:10.658Z,11.81
2023-04-23T14:58:16.810Z,11.99
2023-04-23T15:08:18.575Z,11.60
2023-04-23T15:18:20.490Z,12.25
2023-04-23T15:28:23.606Z,14.65
2023-04-23T15:38:25.470Z,14.79
2023-04-23T15:48:35.488Z,14.40
2023-04-23T15:58:37.274Z,13.86
2023-04-23T16:08:40.028Z,15.65
2023-04-23T16:18:42.998Z,15.58
2023-04-23T16:28:52.000Z,18.92
2023-04-23T16:39:06.053Z,19.17
2023-04-23T16:49:08.402Z,21.32
2023-04-23T16:59:10.746Z,24.85
2023-04-23T17:09:13.859Z,26.75
2023-04-23T17:19:20.226Z,28.08
2023-04-23T17:29:22.832Z,29.35
2023-04-23T17:39:25.725Z,30.73
2023-04-23T17:49:28.872Z,31.56
2023-04-23T17:59:32.105Z,32.32
2023-04-23T18:09:40.643Z,32.29
2023-04-23T18:19:52.330Z,34.21
2023-04-23T18:29:54.609Z,35.76
2023-04-23T18:40:22.860Z,35.90
2023-04-23T18:50:49.500Z,36.64
2023-04-23T19:00:54.033Z,37.87
2023-04-23T19:11:06.578Z,39.56
2023-04-23T19:21:10.794Z,40.62
2023-04-23T19:31:18.440Z,41.57
2023-04-23T19:41:24.377Z,42.01
2023-04-23T19:51:36.037Z,42.31
2023-04-23T20:01:39.950Z,42.99
2023-04-23T20:11:43.418Z,42.74
2023-04-23T20:21:46.405Z,43.80
2023-04-23T20:31:49.932Z,43.75
2023-04-23T20:41:55.277Z,43.90
2023-04-23T20:51:57.377Z,44.68
2023-04-23T21:02:02.225Z,44.84
2023-04-23T21:12:05.470Z,45.20
2023-04-23T21:22:10.904Z,46.30
2023-04-23T21:32:12.763Z,49.10
2023-04-23T21:42:14.575Z,49.26
2023-04-23T21:52:17.493Z,49.32
2023-04-23T22:02:19.516Z,48.81
2023-04-23T22:12:21.490Z,49.09
2023-04-23T22:22:23.530Z,49.08
2023-04-23T22:32:25.465Z,50.87
2023-04-23T22:42:27.183Z,51.90
2023-04-23T22:52:28.894Z,51.94
2023-04-23T23:02:30.875Z,53.17
2023-04-23T23:12:37.470Z,57.29
2023-04-23T23:22:39.310Z,61.04
2023-04-23T23:32:42.426Z,68.22
2023-04-23T23:42:45.159Z,66.76
2023-04-23T23:52:47.457Z,68.66
